International Virtual Aviation Organisation

Eastern Europe and Northern Asia MCD

 
UWKD 131930Z 14003MPS CAVOK 06/01 Q1030 R11/CLRD60 NOSIG RMK QFE762/1016
QNH:(hPa/inHg/mmHg)1030 / 30.42 / 773
QFE:(hPa/inHg/mmHg)1015 / 29.96 / 761
Temperature6
Dew Point1
Visibility> 10000
WeatherCAVOK
Cloud Cover
Transition Height900 m./3400 ft.
Transition LevelFL40
SQUAWK